Time;durP1;ratioP1;P1;durP2;ratioP2;P2;SDS_P1;SDS_P2;PMS_P1;PMS_P2;Temp;Humidity;BMP_temperature;BMP_pressure;BME280_temperature;BME280_humidity;BME280_pressure;Samples;Min_cycle;Max_cycle;Signal;HPM_P1;HPM_P2
2021/05/14 00:01:12;;;;;;;8.02;5.45;;;333.10;2329.60;;;;;;4863151;29;20547;-92
2021/05/14 00:03:38;;;;;;;9.70;5.18;;;333.00;2329.60;;;;;;4865893;29;20037;-92
2021/05/14 00:06:04;;;;;;;12.43;5.97;;;333.00;2329.60;;;;;;4868531;29;20077;-92
2021/05/14 00:08:30;;;;;;;12.75;6.15;;;333.10;2329.60;;;;;;4875718;29;20033;-92
2021/05/14 00:10:56;;;;;;;7.50;4.63;;;333.10;2329.60;;;;;;4869627;29;20069;-92
2021/05/14 00:13:24;;;;;;;6.85;4.60;;;333.20;2329.60;;;;;;4867945;29;20077;-93
2021/05/14 00:15:50;;;;;;;9.25;4.63;;;333.30;2329.60;;;;;;4871986;29;20594;-93
2021/05/14 00:18:16;;;;;;;8.85;4.75;;;333.30;2329.60;;;;;;4865028;29;20424;-92
2021/05/14 00:20:45;;;;;;;10.70;4.05;;;333.30;2329.60;;;;;;4872017;29;20038;-92
2021/05/14 00:23:12;;;;;;;9.80;5.47;;;333.40;2329.60;;;;;;4864003;29;20033;-93
2021/05/14 00:25:38;;;;;;;9.27;5.10;;;333.30;2329.60;;;;;;4867890;29;20037;-92
2021/05/14 00:28:05;;;;;;;10.60;5.35;;;333.30;2329.60;;;;;;4869989;29;20025;-92
2021/05/14 00:30:31;;;;;;;11.52;5.40;;;333.20;2329.60;;;;;;4869987;29;20033;-93
2021/05/14 00:32:57;;;;;;;8.52;5.22;;;333.20;2329.60;;;;;;4871640;29;20106;-92
2021/05/14 00:35:24;;;;;;;8.55;5.18;;;333.30;2329.60;;;;;;4871302;29;20037;-91
2021/05/14 00:37:50;;;;;;;8.93;4.03;;;333.30;2329.60;;;;;;4871536;29;20025;-91
2021/05/14 00:40:16;;;;;;;10.40;5.53;;;333.30;2329.60;;;;;;4868258;29;20033;-91
2021/05/14 00:42:42;;;;;;;7.50;5.13;;;333.40;2329.60;;;;;;4878695;29;20021;-91
2021/05/14 00:45:10;;;;;;;7.60;4.20;;;333.60;2329.60;;;;;;4882989;29;20101;-90
2021/05/14 00:47:36;;;;;;;10.13;3.90;;;333.50;2329.60;;;;;;4882933;29;20025;-92
2021/05/14 00:50:02;;;;;;;7.63;4.18;;;333.40;2329.60;;;;;;4883971;29;20017;-90
2021/05/14 00:52:28;;;;;;;4.63;2.97;;;333.50;2329.60;;;;;;4882897;29;20029;-90
2021/05/14 00:54:54;;;;;;;8.90;3.65;;;333.40;2329.60;;;;;;4884539;29;20033;-91
2021/05/14 00:57:21;;;;;;;8.73;3.10;;;333.40;2329.60;;;;;;4882630;29;20058;-92
2021/05/14 00:59:48;;;;;;;5.70;3.53;;;333.40;2329.60;;;;;;4869776;29;20045;-91
2021/05/14 01:02:16;;;;;;;10.27;3.80;;;333.40;2329.60;;;;;;4867698;29;20049;-90
2021/05/14 01:04:45;;;;;;;13.55;4.90;;;333.40;2329.60;;;;;;4871943;29;20033;-92
2021/05/14 01:07:13;;;;;;;8.35;3.88;;;333.40;2329.60;;;;;;4878483;29;20029;-91
2021/05/14 01:09:40;;;;;;;8.30;4.20;;;333.40;2329.60;;;;;;4873012;29;20021;-93
2021/05/14 01:12:10;;;;;;;7.13;3.55;;;333.40;2329.60;;;;;;4871490;29;20068;-92
2021/05/14 01:14:36;;;;;;;8.20;5.40;;;333.40;2329.60;;;;;;4873918;29;20041;-92
2021/05/14 01:17:03;;;;;;;12.57;4.75;;;333.30;2329.60;;;;;;4873829;29;20041;-91
2021/05/14 01:19:29;;;;;;;7.97;5.43;;;333.30;2329.60;;;;;;4871984;29;20044;-92
2021/05/14 01:21:57;;;;;;;11.40;4.47;;;333.20;2329.60;;;;;;4880313;29;20096;-92
2021/05/14 01:24:27;;;;;;;11.80;5.60;;;333.10;2329.60;;;;;;4882047;29;20034;-92
2021/05/14 01:26:53;;;;;;;8.32;4.32;;;333.00;2329.60;;;;;;4864177;29;20041;-91
2021/05/14 01:29:24;;;;;;;10.65;6.05;;;332.90;2329.60;;;;;;4874445;29;20014;-92
2021/05/14 01:31:52;;;;;;;10.43;5.72;;;332.90;2329.60;;;;;;4873007;29;20474;-92
2021/05/14 01:34:18;;;;;;;13.55;6.15;;;332.90;2329.60;;;;;;4873922;29;20041;-89
2021/05/14 01:36:43;;;;;;;9.05;5.72;;;333.00;2329.60;;;;;;4878914;29;20030;-91
2021/05/14 01:39:12;;;;;;;7.30;4.57;;;333.20;2329.60;;;;;;4875477;29;20097;-92
2021/05/14 01:41:39;;;;;;;12.05;4.85;;;333.10;2329.60;;;;;;4879778;29;20062;-91
2021/05/14 01:44:05;;;;;;;9.95;3.85;;;333.10;2329.60;;;;;;4877628;29;20128;-92
2021/05/14 01:46:33;;;;;;;6.82;3.65;;;333.10;2329.60;;;;;;4878370;29;20021;-93
2021/05/14 01:49:04;;;;;;;8.80;4.15;;;333.10;2329.60;;;;;;4894730;29;20045;-91
2021/05/14 01:51:35;;;;;;;12.07;4.55;;;333.00;2329.60;;;;;;4879460;29;20045;-93
2021/05/14 01:54:03;;;;;;;10.43;4.80;;;332.90;2329.60;;;;;;4880796;29;20047;-92
2021/05/14 01:56:33;;;;;;;8.23;5.32;;;333.10;2329.60;;;;;;4894610;29;20038;-92
2021/05/14 01:59:01;;;;;;;17.05;4.55;;;332.90;2329.60;;;;;;4881113;29;20037;-92
2021/05/14 02:01:34;;;;;;;8.52;5.47;;;332.90;2329.60;;;;;;4903080;29;20025;-92
2021/05/14 02:04:01;;;;;;;10.32;4.93;;;332.90;2329.60;;;;;;4887624;29;20108;-92
2021/05/14 02:06:34;;;;;;;7.95;4.63;;;332.90;2329.60;;;;;;4886395;29;20049;-93
2021/05/14 02:09:00;;;;;;;11.27;5.70;;;332.90;2329.60;;;;;;4889340;29;20029;-90
2021/05/14 02:11:34;;;;;;;11.63;5.45;;;332.90;2329.60;;;;;;4889519;29;20029;-91
2021/05/14 02:14:00;;;;;;;14.25;5.57;;;332.80;2329.60;;;;;;4889052;29;20120;-90
2021/05/14 02:16:27;;;;;;;9.57;5.45;;;332.90;2329.60;;;;;;4889361;29;20029;-91
2021/05/14 02:18:53;;;;;;;10.57;4.97;;;332.90;2329.60;;;;;;4869955;29;20029;-93
2021/05/14 02:21:19;;;;;;;8.70;4.57;;;332.90;2329.60;;;;;;4872033;29;20116;-92
2021/05/14 02:23:44;;;;;;;7.95;4.47;;;333.00;2329.60;;;;;;4870882;29;20129;-91
2021/05/14 02:26:10;;;;;;;9.95;4.82;;;333.10;2329.60;;;;;;4870092;29;20041;-92
2021/05/14 02:28:36;;;;;;;7.55;5.35;;;333.10;2329.60;;;;;;4869165;29;20029;-91
2021/05/14 02:31:03;;;;;;;8.38;4.53;;;333.20;2329.60;;;;;;4868891;29;20032;-91
2021/05/14 02:33:29;;;;;;;7.70;4.85;;;333.20;2329.60;;;;;;4866198;29;20070;-93
2021/05/14 02:35:55;;;;;;;8.32;4.78;;;333.30;2329.60;;;;;;4866089;29;20032;-86
2021/05/14 02:38:21;;;;;;;9.95;5.10;;;333.40;2329.60;;;;;;4863974;29;20026;-92
2021/05/14 02:40:48;;;;;;;7.10;4.25;;;333.40;2329.60;;;;;;4864188;29;20053;-92
2021/05/14 02:43:14;;;;;;;10.38;6.30;;;333.40;2329.60;;;;;;4863932;29;20033;-92
2021/05/14 02:45:40;;;;;;;10.80;5.30;;;333.50;2329.60;;;;;;4879527;29;20116;-92
2021/05/14 02:48:06;;;;;;;10.20;4.13;;;333.40;2329.60;;;;;;4864037;29;20053;-92
2021/05/14 02:50:32;;;;;;;10.02;5.53;;;333.40;2329.60;;;;;;4863877;29;20045;-91
2021/05/14 02:52:58;;;;;;;10.32;4.22;;;333.50;2329.60;;;;;;4863946;29;20033;-91
2021/05/14 02:55:24;;;;;;;7.20;4.78;;;333.50;2329.60;;;;;;4863923;29;20034;-90
2021/05/14 02:57:52;;;;;;;8.98;4.35;;;333.60;2329.60;;;;;;4878464;29;20048;-87
2021/05/14 03:00:19;;;;;;;9.45;5.15;;;333.70;2329.60;;;;;;4886396;29;20109;-87
2021/05/14 03:02:44;;;;;;;10.52;5.18;;;333.60;2329.60;;;;;;4886601;29;20084;-90
2021/05/14 03:05:11;;;;;;;5.97;4.40;;;333.60;2329.60;;;;;;4879645;29;20064;-89
2021/05/14 03:07:37;;;;;;;6.72;5.00;;;333.60;2329.60;;;;;;4871705;29;20049;-89
2021/05/14 03:10:04;;;;;;;6.93;4.47;;;333.60;2329.60;;;;;;4870654;29;20063;-90
2021/05/14 03:12:30;;;;;;;8.52;4.68;;;333.60;2329.60;;;;;;4867865;29;20065;-90
2021/05/14 03:14:55;;;;;;;8.57;4.40;;;333.60;2329.60;;;;;;4868605;29;20057;-89
2021/05/14 03:17:21;;;;;;;8.75;4.38;;;333.60;2329.60;;;;;;4878953;29;20026;-90
2021/05/14 03:19:47;;;;;;;9.20;3.58;;;333.50;2329.60;;;;;;4875407;29;20176;-90
2021/05/14 03:22:13;;;;;;;6.03;3.47;;;333.40;2329.60;;;;;;4880006;29;20058;-91
2021/05/14 03:24:38;;;;;;;7.35;3.42;;;333.40;2329.60;;;;;;4874984;29;20559;-90
2021/05/14 03:27:04;;;;;;;8.27;5.00;;;333.30;2329.60;;;;;;4866204;29;20021;-90
2021/05/14 03:29:30;;;;;;;12.85;5.25;;;333.20;2329.60;;;;;;4865483;29;20033;-90
2021/05/14 03:31:56;;;;;;;9.20;5.18;;;333.20;2329.60;;;;;;4865166;29;20026;-90
2021/05/14 03:34:22;;;;;;;14.27;5.95;;;333.20;2329.60;;;;;;4872395;29;20115;-90
2021/05/14 03:36:48;;;;;;;13.65;6.78;;;333.10;2329.60;;;;;;4881610;29;20029;-90
2021/05/14 03:39:15;;;;;;;9.90;5.70;;;333.10;2329.60;;;;;;4866944;29;20030;-90
2021/05/14 03:44:33;;;;;;;12.48;7.22;;;333.00;2329.60;;;;;;4878291;29;20113;-89
2021/05/14 03:47:02;;;;;;;8.70;6.03;;;332.90;2329.60;;;;;;4882421;29;20025;-87
2021/05/14 03:49:28;;;;;;;12.07;7.45;;;333.00;2329.60;;;;;;4884224;29;20026;-89
2021/05/14 03:51:54;;;;;;;11.02;6.18;;;333.20;2329.60;;;;;;4884733;29;20058;-90
2021/05/14 03:54:21;;;;;;;11.90;6.35;;;333.40;2329.60;;;;;;4885351;29;20037;-89
2021/05/14 03:56:48;;;;;;;10.07;6.88;;;333.60;2329.60;;;;;;4877718;29;20049;-90
2021/05/14 03:59:16;;;;;;;10.27;6.22;;;358.40;2329.60;;;;;;4862712;29;20030;-90
2021/05/14 04:01:48;;;;;;;11.23;6.65;;;358.50;2329.60;;;;;;4876160;29;20033;-91
2021/05/14 04:04:14;;;;;;;12.55;7.30;;;358.80;2329.60;;;;;;4864110;29;20099;-90
2021/05/14 04:06:39;;;;;;;13.40;8.38;;;358.90;2329.60;;;;;;4863264;29;20025;-90
2021/05/14 04:09:06;;;;;;;12.77;6.18;;;359.10;2329.60;;;;;;4862384;29;20034;-91
2021/05/14 04:16:45;;;;;;;8.20;4.97;;;359.20;2329.60;;;;;;4863004;29;20435;-90
2021/05/14 04:19:11;;;;;;;10.45;4.82;;;359.10;2329.60;;;;;;4861890;29;20029;-90
2021/05/14 04:21:37;;;;;;;8.32;5.38;;;359.00;2329.60;;;;;;4862566;29;20105;-90
2021/05/14 04:24:05;;;;;;;12.45;5.20;;;359.00;2329.60;;;;;;4863647;29;20033;-90
2021/05/14 04:26:31;;;;;;;11.27;5.90;;;358.70;2329.60;;;;;;4862930;29;20026;-90
2021/05/14 04:28:57;;;;;;;10.85;5.28;;;358.60;2329.60;;;;;;4862478;29;20390;-90
2021/05/14 04:31:23;;;;;;;8.48;5.00;;;358.60;2329.60;;;;;;4864004;29;20035;-91
2021/05/14 04:33:48;;;;;;;10.50;5.68;;;358.90;2329.60;;;;;;4863035;29;20033;-90
2021/05/14 04:36:14;;;;;;;7.00;5.85;;;359.00;2329.60;;;;;;4866818;29;20124;-91
2021/05/14 04:38:40;;;;;;;8.20;5.22;;;359.00;2329.60;;;;;;4862618;29;20033;-90
2021/05/14 04:41:06;;;;;;;8.93;4.95;;;359.20;2329.60;;;;;;4870766;29;20088;-90
2021/05/14 04:43:32;;;;;;;7.82;5.05;;;384.00;2329.60;;;;;;4881048;29;20041;-90
2021/05/14 04:45:57;;;;;;;12.57;5.53;;;384.20;2329.60;;;;;;4881217;29;20025;-90
2021/05/14 04:48:23;;;;;;;7.82;5.72;;;384.20;2329.60;;;;;;4892384;29;20029;-89
2021/05/14 04:50:49;;;;;;;8.52;6.30;;;384.30;2329.60;;;;;;4886266;29;20539;-92
2021/05/14 04:53:15;;;;;;;14.82;7.10;;;384.40;2329.60;;;;;;4884030;29;20041;-93
2021/05/14 04:55:41;;;;;;;11.70;6.35;;;384.40;2329.60;;;;;;4897490;29;20048;-91
2021/05/14 04:58:09;;;;;;;11.48;5.72;;;384.40;2329.60;;;;;;4882119;29;20033;-95
2021/05/14 05:00:35;;;;;;;9.65;6.25;;;384.40;2329.60;;;;;;4886272;29;20037;-91
2021/05/14 05:03:01;;;;;;;10.63;5.60;;;384.40;2329.60;;;;;;4883141;29;20416;-90
2021/05/14 05:05:27;;;;;;;11.05;5.50;;;384.60;2329.60;;;;;;4891459;29;20024;-90
2021/05/14 05:07:52;;;;;;;10.23;6.40;;;384.70;2329.60;;;;;;4902871;29;20025;-90
2021/05/14 05:10:20;;;;;;;12.18;6.28;;;384.90;2329.60;;;;;;4908102;29;20037;-89
2021/05/14 05:12:46;;;;;;;11.68;6.30;;;409.70;2329.60;;;;;;4915744;29;20064;-89
2021/05/14 05:15:14;;;;;;;10.15;6.97;;;409.80;2304.00;;;;;;4912193;29;20041;-90
2021/05/14 05:17:40;;;;;;;8.48;5.95;;;409.80;2252.80;;;;;;4914547;29;20016;-91
2021/05/14 05:20:07;;;;;;;12.50;5.90;;;409.80;2252.80;;;;;;4906573;29;20044;-89
2021/05/14 05:22:33;;;;;;;10.65;6.40;;;409.80;2227.20;;;;;;4908726;29;20032;-90
2021/05/14 05:24:59;;;;;;;9.95;5.93;;;409.90;2227.20;;;;;;4901296;29;20029;-90
2021/05/14 05:27:24;;;;;;;11.40;6.15;;;409.90;2252.80;;;;;;4903734;29;20056;-91
2021/05/14 05:29:50;;;;;;;12.50;5.80;;;410.00;2201.60;;;;;;4903660;29;20078;-90
2021/05/14 05:32:16;;;;;;;6.57;4.82;;;410.10;2201.60;;;;;;4901610;29;20481;-90
2021/05/14 05:34:42;;;;;;;9.60;5.30;;;410.20;2176.00;;;;;;4895737;29;20052;-89
2021/05/14 05:37:08;;;;;;;10.52;5.85;;;410.20;2150.40;;;;;;4871633;29;20038;-89
2021/05/14 05:39:34;;;;;;;10.98;5.55;;;410.20;2150.40;;;;;;4863270;29;20478;-89
2021/05/14 05:42:00;;;;;;;12.18;5.65;;;410.20;2150.40;;;;;;4879168;29;20478;-90
2021/05/14 05:44:25;;;;;;;11.88;7.00;;;410.10;2124.80;;;;;;4900250;29;20504;-89
2021/05/14 05:46:53;;;;;;;11.88;7.32;;;410.20;2124.80;;;;;;4901058;29;20497;-90
2021/05/14 05:49:21;;;;;;;13.02;7.30;;;410.40;2124.80;;;;;;4884540;29;20040;-90
2021/05/14 05:51:47;;;;;;;14.02;5.90;;;435.40;2099.20;;;;;;4878441;29;20121;-90
2021/05/14 05:54:13;;;;;;;10.02;6.63;;;435.90;2022.40;;;;;;4896866;29;20041;-90
2021/05/14 05:56:45;;;;;;;7.60;5.15;;;436.00;1971.20;;;;;;4908546;29;20032;-91
2021/05/14 05:59:20;;;;;;;9.05;5.85;;;436.10;1971.20;;;;;;4894260;29;20078;-89
2021/05/14 06:27:12;;;;;;;4.50;2.75;;;435.60;1894.40;;;;;;5651829;23;20261;-87
2021/05/14 06:29:37;;;;;;;5.22;2.92;;;435.60;1868.80;;;;;;4901176;29;20135;-81
2021/05/14 06:32:04;;;;;;;8.70;4.45;;;435.80;1945.60;;;;;;4915947;29;20060;-84
2021/05/14 06:34:30;;;;;;;6.90;2.80;;;436.10;1894.40;;;;;;4900095;29;20037;-83
2021/05/14 06:36:55;;;;;;;6.90;3.60;;;436.10;1817.60;;;;;;4903336;29;20035;-91
2021/05/14 06:39:21;;;;;;;4.20;2.70;;;460.90;1843.20;;;;;;4916156;29;20445;-83
2021/05/14 06:41:47;;;;;;;7.35;2.53;;;461.20;1792.00;;;;;;4916417;29;20028;-87
2021/05/14 06:44:13;;;;;;;6.30;2.70;;;461.70;1766.40;;;;;;4917275;29;20037;-84
2021/05/14 06:46:39;;;;;;;4.72;2.50;;;486.70;1664.00;;;;;;4916118;29;20076;-84
2021/05/14 06:49:07;;;;;;;6.00;2.65;;;487.00;1664.00;;;;;;4916560;29;20092;-81
2021/05/14 06:51:34;;;;;;;8.38;3.00;;;487.30;1689.60;;;;;;4899717;29;20052;-88
2021/05/14 06:53:59;;;;;;;9.48;3.28;;;512.10;1638.40;;;;;;4901739;29;20044;-88
2021/05/14 06:56:25;;;;;;;8.10;4.47;;;512.40;1587.20;;;;;;4914739;29;20374;-89
2021/05/14 06:58:54;;;;;;;6.07;2.78;;;512.80;1587.20;;;;;;4917099;29;20044;-86
2021/05/14 07:01:20;;;;;;;9.70;4.03;;;537.60;1587.20;;;;;;4916617;29;20032;-87
2021/05/14 07:06:32;;;;;;;10.02;3.80;;;537.80;1536.00;;;;;;4901111;29;20068;-86
2021/05/14 07:09:04;;;;;;;8.50;3.08;;;538.00;1561.60;;;;;;4916732;29;20123;-86
2021/05/14 07:11:33;;;;;;;9.63;4.43;;;538.20;1536.00;;;;;;4899256;29;20032;-86
2021/05/14 07:14:23;;;;;;;6.20;3.25;;;538.40;1484.80;;;;;;4901288;29;20052;-88
2021/05/14 07:16:50;;;;;;;5.82;2.85;;;563.30;1510.40;;;;;;4901474;29;20495;-88
2021/05/14 07:19:19;;;;;;;9.40;4.30;;;563.20;1459.20;;;;;;4900723;29;20035;-87
2021/05/14 07:21:51;;;;;;;15.35;4.50;;;563.20;1459.20;;;;;;4901988;29;20028;-90
2021/05/14 07:24:45;;;;;;;4.23;3.23;;;563.40;1484.80;;;;;;4901860;29;20030;-87
2021/05/14 07:33:26;;;;;;;12.15;4.90;;;563.60;1510.40;;;;;;4971865;23;20052;-88
2021/05/14 07:38:52;;;;;;;9.27;3.43;;;563.60;1510.40;;;;;;5502083;23;20056;-86
2021/05/14 07:44:12;;;;;;;14.35;3.80;;;564.00;1484.80;;;;;;5386645;23;20131;-88
2021/05/14 07:46:40;;;;;;;8.50;4.32;;;589.00;1459.20;;;;;;4922997;29;20032;-87
2021/05/14 07:49:06;;;;;;;17.08;4.05;;;589.20;1382.40;;;;;;4929175;29;20036;-88
2021/05/14 07:51:54;;;;;;;8.27;3.58;;;589.20;1382.40;;;;;;4922756;29;20116;-89
2021/05/14 07:54:20;;;;;;;8.55;3.35;;;589.10;1408.00;;;;;;4916958;29;20028;-89
2021/05/14 07:56:46;;;;;;;15.85;3.25;;;589.20;1408.00;;;;;;4866796;29;20602;-88
2021/05/14 07:59:23;;;;;;;13.90;3.28;;;589.20;1382.40;;;;;;4873228;29;20060;-86
2021/05/14 08:02:14;;;;;;;4.85;2.90;;;589.00;1356.80;;;;;;4899119;29;20037;-89
2021/05/14 08:04:49;;;;;;;7.53;2.90;;;589.20;1382.40;;;;;;4885510;29;20053;-89
2021/05/14 08:07:21;;;;;;;8.85;3.70;;;589.00;1356.80;;;;;;4865565;29;20056;-85
2021/05/14 08:09:55;;;;;;;5.82;2.90;;;564.10;1382.40;;;;;;4871729;29;20047;-87
2021/05/14 08:12:22;;;;;;;4.25;2.13;;;564.10;1382.40;;;;;;4876695;29;20616;-86
2021/05/14 08:15:24;;;;;;;4.28;1.42;;;563.60;1356.80;;;;;;4872437;29;20129;-84
2021/05/14 08:18:52;;;;;;;;;;;;;;;;;;;;;
2021/05/14 08:24:50;;;;;;;5.22;3.28;;;563.30;1331.20;;;;;;4898454;29;20550;-87
2021/05/14 08:27:24;;;;;;;12.73;6.45;;;563.40;1331.20;;;;;;4864539;29;20469;-88
2021/05/14 08:29:59;;;;;;;3.50;1.65;;;564.10;1331.20;;;;;;4863484;29;20040;-88
2021/05/14 08:32:25;;;;;;;3.03;1.52;;;589.00;1228.80;;;;;;4864338;29;20052;-86
2021/05/14 08:34:50;;;;;;;4.72;1.85;;;564.00;1280.00;;;;;;4890011;29;20115;-86
2021/05/14 08:37:17;;;;;;;3.95;1.83;;;588.80;1254.40;;;;;;4905649;29;20044;-91
2021/05/14 08:39:43;;;;;;;3.15;1.10;;;589.30;1254.40;;;;;;4898722;29;20115;-87
2021/05/14 08:42:08;;;;;;;4.47;1.67;;;589.00;1177.60;;;;;;4912917;29;20119;-87
2021/05/14 08:44:35;;;;;;;4.15;1.65;;;564.00;1254.40;;;;;;4928873;29;20063;-88
2021/05/14 08:47:04;;;;;;;3.75;1.70;;;564.10;1254.40;;;;;;4920075;29;20508;-85
2021/05/14 08:49:31;;;;;;;3.20;1.45;;;563.90;1305.60;;;;;;4922260;29;20031;-91
2021/05/14 08:52:12;;;;;;;3.65;1.50;;;563.40;1280.00;;;;;;4930019;29;20566;-89
2021/05/14 09:00:29;;;;;;;2.88;1.30;;;563.80;1280.00;;;;;;5503612;23;20047;-91
2021/05/14 09:02:55;;;;;;;3.22;1.60;;;563.40;1305.60;;;;;;4939970;29;20027;-89
2021/05/14 09:08:40;;;;;;;4.25;1.30;;;563.60;1305.60;;;;;;4956957;29;20042;-91
2021/05/14 09:11:06;;;;;;;3.70;1.40;;;563.70;1305.60;;;;;;4940036;29;20030;-88
2021/05/14 09:13:44;;;;;;;3.53;1.52;;;564.10;1254.40;;;;;;4938385;29;20193;-86
2021/05/14 09:20:00;;;;;;;3.72;1.63;;;564.10;1228.80;;;;;;5215248;23;21241;-93
2021/05/14 09:22:41;;;;;;;1.65;1.10;;;589.20;1280.00;;;;;;5305962;23;20058;-96
2021/05/14 09:28:38;;;;;;;3.37;1.90;;;589.50;1177.60;;;;;;6008297;23;20031;31
2021/05/14 09:31:12;;;;;;;3.88;1.38;;;614.40;1177.60;;;;;;4860422;29;20061;-87
2021/05/14 09:34:01;;;;;;;2.17;0.90;;;614.50;1152.00;;;;;;4872436;29;20513;-87
2021/05/14 09:36:34;;;;;;;2.22;1.48;;;589.40;1177.60;;;;;;4869415;29;20026;-87
2021/05/14 09:39:12;;;;;;;2.65;1.10;;;614.80;1177.60;;;;;;4874374;29;20029;-90
2021/05/14 09:41:44;;;;;;;5.50;1.63;;;640.00;1100.80;;;;;;4872343;29;20026;-86
2021/05/14 09:44:15;;;;;;;2.30;0.60;;;614.80;1100.80;;;;;;4850097;29;20125;-86
2021/05/14 09:47:15;;;;;;;3.67;1.40;;;589.60;1100.80;;;;;;4873426;29;20042;-86
2021/05/14 09:49:52;;;;;;;2.22;1.23;;;614.60;1126.40;;;;;;4845005;29;20530;-87
2021/05/14 09:52:25;;;;;;;1.42;1.23;;;614.80;1100.80;;;;;;4845112;29;20085;-86
2021/05/14 09:55:40;;;;;;;2.08;1.20;;;615.30;1100.80;;;;;;4859547;29;20087;-90
2021/05/14 09:58:30;;;;;;;2.28;1.15;;;640.00;1024.00;;;;;;4843181;29;20035;-90
2021/05/14 10:00:56;;;;;;;3.60;1.65;;;640.90;972.80;;;;;;4828108;29;20507;-88
2021/05/14 10:17:00;;;;;;;5.30;1.20;;;768.80;819.20;;;;;;5471922;23;20518;31
2021/05/14 10:19:28;;;;;;;3.03;2.17;;;692.00;896.00;;;;;;4864222;29;20125;-89
2021/05/14 10:24:42;;;;;;;6.85;2.97;;;768.40;844.80;;;;;;5202921;23;20046;-90
2021/05/14 10:27:41;;;;;;;6.18;2.58;;;896.40;640.00;;;;;;4955753;29;20035;-91
2021/05/14 10:33:10;;;;;;;9.95;2.25;;;1178.00;435.20;;;;;;5004411;23;20098;-92
2021/05/14 10:44:10;;;;;;;4.65;2.28;;;973.50;537.60;;;;;;4940723;23;20346;-91
2021/05/14 10:46:36;;;;;;;5.72;2.55;;;870.50;640.00;;;;;;4923860;29;20484;-90
2021/05/14 10:49:23;;;;;;;8.05;4.72;;;896.40;588.80;;;;;;4924183;29;20473;-89
2021/05/14 10:51:49;;;;;;;2.38;1.23;;;819.70;691.20;;;;;;4926160;29;20032;-92
2021/05/14 10:54:39;;;;;;;4.63;2.90;;;742.50;819.20;;;;;;4920503;29;20059;-86
2021/05/14 10:57:10;;;;;;;3.75;1.85;;;691.40;870.40;;;;;;4924024;29;20035;-87
2021/05/14 10:59:40;;;;;;;5.22;1.52;;;691.20;870.40;;;;;;4929293;29;20020;-88
2021/05/14 11:02:24;;;;;;;3.25;1.33;;;717.10;844.80;;;;;;4928569;29;20066;-87
2021/05/14 11:05:00;;;;;;;3.88;2.78;;;794.00;768.00;;;;;;4923062;29;20032;-88
2021/05/14 11:07:36;;;;;;;2.92;1.75;;;896.90;614.40;;;;;;4929467;29;20038;-86
2021/05/14 11:10:14;;;;;;;3.38;1.60;;;998.70;563.20;;;;;;4927770;29;20027;-87
2021/05/14 11:12:51;;;;;;;1.90;1.15;;;1024.70;512.00;;;;;;4925863;29;20051;-87
2021/05/14 11:15:20;;;;;;;6.47;4.28;;;948.00;512.00;;;;;;4922988;29;20044;-87
2021/05/14 11:18:13;;;;;;;2.38;1.25;;;947.90;537.60;;;;;;4924100;29;20024;-89
2021/05/14 11:20:44;;;;;;;1.25;0.90;;;896.00;588.80;;;;;;4920694;29;20091;-89
2021/05/14 11:23:29;;;;;;;1.27;0.77;;;819.50;691.20;;;;;;4919024;29;20051;-88
2021/05/14 11:25:55;;;;;;;3.05;1.20;;;743.10;768.00;;;;;;4919186;29;20047;-91
2021/05/14 11:28:54;;;;;;;4.80;1.60;;;742.50;819.20;;;;;;4919138;29;20051;-89
2021/05/14 11:34:32;;;;;;;17.95;13.80;;;870.80;665.60;;;;;;4930488;29;20047;-94
2021/05/14 11:37:05;;;;;;;5.70;2.00;;;1024.50;512.00;;;;;;5053787;23;20071;-89
2021/05/14 11:50:04;;;;;;;4.35;1.30;;;1050.20;460.80;;;;;;5524629;23;20116;-89
2021/05/14 11:57:00;;;;;;;2.75;1.70;;;1024.80;486.40;;;;;;5402516;23;20064;-88
2021/05/14 11:59:44;;;;;;;2.35;1.50;;;998.80;512.00;;;;;;4878743;29;20053;-90
2021/05/14 12:02:48;;;;;;;1.33;0.95;;;999.20;486.40;;;;;;4859045;29;20041;-87
2021/05/14 12:05:55;;;;;;;5.35;1.50;;;922.30;563.20;;;;;;4788040;29;20119;-88
2021/05/14 12:12:16;;;;;;;;;;;;;;;;;;;;;
2021/05/14 12:15:14;;;;;;;2.95;1.50;;;845.00;691.20;;;;;;4871775;29;20045;-87
2021/05/14 12:17:49;;;;;;;4.57;2.25;;;973.70;537.60;;;;;;4880469;29;20036;-83
2021/05/14 12:20:44;;;;;;;3.03;2.80;;;921.90;742.40;;;;;;4880371;29;20044;-93
2021/05/14 12:23:11;;;;;;;6.22;2.40;;;947.60;563.20;;;;;;4877773;29;20037;-77
2021/05/14 12:25:48;;;;;;;3.72;1.20;;;947.60;563.20;;;;;;4878030;29;20085;-77
2021/05/14 12:28:37;;;;;;;5.35;1.15;;;870.40;665.60;;;;;;4879726;29;20045;-88
2021/05/14 12:31:08;;;;;;;4.82;2.47;;;819.80;716.80;;;;;;4866956;29;20037;-90
2021/05/14 12:33:50;;;;;;;4.28;2.03;;;793.90;768.00;;;;;;4861389;29;20061;-87
2021/05/14 12:36:26;;;;;;;5.57;2.50;;;819.20;716.80;;;;;;4863010;29;20030;-89
2021/05/14 12:38:54;;;;;;;4.43;3.13;;;819.30;716.80;;;;;;4862917;29;20029;-87
2021/05/14 12:41:20;;;;;;;2.45;2.22;;;871.00;665.60;;;;;;4881830;29;20057;-78
2021/05/14 12:43:46;;;;;;;4.00;2.47;;;921.90;614.40;;;;;;4893232;29;20127;-77
2021/05/14 12:46:12;;;;;;;3.10;2.80;;;921.80;588.80;;;;;;4877504;29;20044;-79
2021/05/14 12:48:37;;;;;;;1.83;0.90;;;922.50;563.20;;;;;;4881830;29;20533;-89
2021/05/14 12:51:03;;;;;;;2.97;1.70;;;947.70;537.60;;;;;;4886093;29;20028;-89
2021/05/14 12:53:29;;;;;;;2.47;1.60;;;947.40;588.80;;;;;;4882701;29;20398;-90
2021/05/14 12:55:55;;;;;;;2.08;1.10;;;947.40;537.60;;;;;;4882381;29;20033;-89
2021/05/14 12:58:21;;;;;;;1.70;0.80;;;870.80;614.40;;;;;;4891804;29;20010;-90
2021/05/14 13:00:47;;;;;;;4.63;1.20;;;845.10;640.00;;;;;;4898571;29;20093;-85
2021/05/14 13:03:14;;;;;;;1.48;1.10;;;794.20;691.20;;;;;;4901518;29;20029;-86
2021/05/14 13:06:24;;;;;;;1.65;0.98;;;794.20;716.80;;;;;;4885318;29;20057;-93
2021/05/14 13:16:48;;;;;;;1.88;1.00;;;922.50;537.60;;;;;;4873486;29;20054;-86
2021/05/14 13:19:45;;;;;;;8.17;1.73;;;922.50;563.20;;;;;;4872678;29;20040;-85
2021/05/14 13:22:26;;;;;;;11.60;1.88;;;922.50;563.20;;;;;;4857476;29;20034;-83
2021/05/14 13:24:55;;;;;;;4.03;1.92;;;870.50;665.60;;;;;;4862863;29;20029;-84
2021/05/14 13:27:27;;;;;;;4.30;1.65;;;819.90;716.80;;;;;;4865240;29;20081;-81
2021/05/14 13:30:12;;;;;;;3.67;1.33;;;794.50;742.40;;;;;;4864714;29;20056;-81
2021/05/14 13:32:38;;;;;;;3.85;1.23;;;793.70;793.60;;;;;;4860673;29;20038;-81
2021/05/14 13:35:05;;;;;;;2.28;1.30;;;768.10;819.20;;;;;;4844731;29;20041;-82
2021/05/14 13:37:31;;;;;;;3.03;1.23;;;742.80;870.40;;;;;;4847785;29;20041;-80
2021/05/14 13:39:57;;;;;;;8.05;1.75;;;717.50;870.40;;;;;;4849162;29;20053;-83
2021/05/14 13:42:23;;;;;;;3.55;1.35;;;692.10;896.00;;;;;;4850036;29;20130;-82
2021/05/14 13:44:49;;;;;;;4.97;1.85;;;691.90;921.60;;;;;;4849786;29;20091;-82
2021/05/14 13:47:15;;;;;;;5.63;1.48;;;691.60;947.20;;;;;;4864145;29;20026;-82
2021/05/14 13:49:41;;;;;;;3.65;1.25;;;691.20;972.80;;;;;;4875883;29;20037;-85
2021/05/14 13:52:06;;;;;;;5.57;1.48;;;691.40;972.80;;;;;;4864187;29;20054;-86
2021/05/14 13:54:33;;;;;;;2.10;1.20;;;691.50;947.20;;;;;;4864934;29;20041;-84
2021/05/14 13:56:58;;;;;;;5.63;1.63;;;691.70;947.20;;;;;;4849933;29;20516;-85
2021/05/14 13:59:24;;;;;;;5.00;1.30;;;692.00;921.60;;;;;;4866415;29;20120;-84
2021/05/14 14:01:50;;;;;;;6.47;1.30;;;691.90;921.60;;;;;;4848091;29;20531;-86
2021/05/14 14:04:17;;;;;;;4.00;1.48;;;691.80;921.60;;;;;;4865434;29;20037;-84
2021/05/14 14:06:43;;;;;;;4.25;2.03;;;691.90;921.60;;;;;;4863890;29;20166;-84
2021/05/14 14:09:08;;;;;;;3.92;2.05;;;692.10;921.60;;;;;;4850233;29;20025;-86
2021/05/14 14:11:34;;;;;;;3.10;1.70;;;716.90;947.20;;;;;;4864441;29;20059;-89
2021/05/14 14:14:00;;;;;;;4.80;1.52;;;716.90;947.20;;;;;;4865548;29;20041;-87
2021/05/14 14:16:27;;;;;;;5.72;1.42;;;716.90;947.20;;;;;;4864530;29;20108;-85
2021/05/14 14:18:53;;;;;;;3.92;1.88;;;692.00;921.60;;;;;;4866448;29;20032;-84
2021/05/14 14:21:20;;;;;;;2.78;1.80;;;691.70;947.20;;;;;;4863865;29;20026;-85
2021/05/14 14:23:45;;;;;;;5.45;2.08;;;691.70;947.20;;;;;;4848803;29;20394;-84
2021/05/14 14:26:11;;;;;;;12.93;7.20;;;691.80;947.20;;;;;;4848452;29;20036;-88
2021/05/14 14:28:37;;;;;;;14.50;12.10;;;691.60;947.20;;;;;;4848329;29;20038;-88
2021/05/14 14:31:03;;;;;;;22.92;14.15;;;691.30;972.80;;;;;;4843206;29;20108;-83
2021/05/14 14:33:29;;;;;;;18.08;12.48;;;666.40;972.80;;;;;;4846988;29;20124;-83
2021/05/14 14:35:55;;;;;;;17.10;11.95;;;666.20;998.40;;;;;;4846870;29;20449;-88
2021/05/14 14:38:21;;;;;;;19.23;10.93;;;665.80;998.40;;;;;;4863055;29;20386;-87